BEL49 EGPH-EBBR
Flight info
| Callsign | BEL49 |
|---|---|
| Flight time | N/A |
| Altitude | 37000 |
| Route | TLA Y96 OTBUN DCT NATEB DCT GODOS DCT ALFEN DCT ORCAV Z310 WOODY |
| Aircraft | A320/M-SDE3FGHIRWY/LB1 |
Departure
| Time | 2026-05-04 14:09 |
|---|---|
| Airport | Edinburgh Airport (EGPH) |
Arrival
| Time | N/A |
|---|---|
| Airport | Brussels Airport (EBBR) |
| Time | Latitude | Longitude | Altitude | Speed | Heading |
|---|---|---|---|---|---|
| 2026-05-04 13:48 | 55.94657 | -3.36615 | 116 ft | 0 kts | 89° |
| 2026-05-04 13:58 | 55.94656 | -3.36677 | 114 ft | 4 kts | 89° |
| 2026-05-04 13:58 | 55.94654 | -3.36713 | 113 ft | 4 kts | 49° |
| 2026-05-04 13:59 | 55.94633 | -3.36732 | 113 ft | 4 kts | 6° |
| 2026-05-04 13:59 | 55.94621 | -3.36734 | 113 ft | 0 kts | 359° |
| 2026-05-04 14:03 | 55.94622 | -3.36734 | 116 ft | 1 kts | 359° |
| 2026-05-04 14:03 | 55.94647 | -3.36734 | 116 ft | 6 kts | 359° |
| 2026-05-04 14:04 | 55.94763 | -3.36757 | 113 ft | 12 kts | 326° |
| 2026-05-04 14:04 | 55.94845 | -3.36778 | 116 ft | 12 kts | 359° |
| 2026-05-04 14:04 | 55.94923 | -3.36830 | 115 ft | 12 kts | 341° |
| 2026-05-04 14:05 | 55.95015 | -3.36634 | 114 ft | 10 kts | 59° |
| 2026-05-04 14:05 | 55.95059 | -3.36504 | 114 ft | 16 kts | 58° |
| 2026-05-04 14:05 | 55.95114 | -3.36342 | 113 ft | 15 kts | 59° |
| 2026-05-04 14:06 | 55.95168 | -3.36181 | 113 ft | 16 kts | 59° |
| 2026-05-04 14:06 | 55.95226 | -3.36009 | 115 ft | 15 kts | 59° |
| 2026-05-04 14:06 | 55.95279 | -3.35852 | 115 ft | 14 kts | 58° |
| 2026-05-04 14:06 | 55.95327 | -3.35712 | 114 ft | 13 kts | 58° |
| 2026-05-04 14:07 | 55.95369 | -3.35584 | 114 ft | 11 kts | 59° |
| 2026-05-04 14:07 | 55.95408 | -3.35470 | 113 ft | 10 kts | 58° |
| 2026-05-04 14:07 | 55.95460 | -3.35400 | 116 ft | 13 kts | 354° |
| 2026-05-04 14:07 | 55.95546 | -3.35492 | 114 ft | 13 kts | 328° |
| 2026-05-04 14:08 | 55.95567 | -3.35578 | 113 ft | 9 kts | 239° |
| 2026-05-04 14:08 | 55.95562 | -3.35592 | 113 ft | 0 kts | 238° |
| 2026-05-04 14:08 | 55.95560 | -3.35596 | 113 ft | 3 kts | 238° |
| 2026-05-04 14:08 | 55.95441 | -3.35953 | 111 ft | 72 kts | 239° |
| 2026-05-04 14:09 | 55.94507 | -3.38656 | 428 ft | 154 kts | 242° |
| 2026-05-04 14:09 | 55.93952 | -3.40245 | 1197 ft | 155 kts | 242° |
| 2026-05-04 14:10 | 55.92742 | -3.43552 | 2642 ft | 163 kts | 242° |
| 2026-05-04 14:10 | 55.92158 | -3.45286 | 3361 ft | 164 kts | 243° |
| 2026-05-04 14:10 | 55.91573 | -3.47082 | 3899 ft | 175 kts | 243° |
| 2026-05-04 14:10 | 55.90922 | -3.49096 | 4201 ft | 201 kts | 243° |
| 2026-05-04 14:11 | 55.90162 | -3.51384 | 4595 ft | 227 kts | 241° |
| 2026-05-04 14:11 | 55.88408 | -3.56671 | 5803 ft | 259 kts | 237° |
| 2026-05-04 14:11 | 55.86984 | -3.58643 | 6596 ft | 269 kts | 202° |
| 2026-05-04 14:12 | 55.85086 | -3.58806 | 7448 ft | 285 kts | 169° |
| 2026-05-04 14:12 | 55.84068 | -3.58057 | 7826 ft | 298 kts | 151° |